createdAt,value
2023-04-11T00:01:24.906Z,5.91
2023-04-11T00:03:53.183Z,5.85
2023-04-11T00:06:20.506Z,5.85
2023-04-11T00:08:48.026Z,5.86
2023-04-11T00:11:15.618Z,5.87
2023-04-11T00:13:43.152Z,5.88
2023-04-11T00:16:10.270Z,5.88
2023-04-11T00:18:39.523Z,5.85
2023-04-11T00:21:08.376Z,5.82
2023-04-11T00:23:35.075Z,5.78
2023-04-11T00:26:01.949Z,5.72
2023-04-11T00:28:28.785Z,5.65
2023-04-11T00:30:55.678Z,5.56
2023-04-11T00:33:22.507Z,5.51
2023-04-11T00:35:49.403Z,5.50
2023-04-11T00:38:16.775Z,5.47
2023-04-11T00:40:43.762Z,5.38
2023-04-11T00:43:10.654Z,5.33
2023-04-11T00:45:37.976Z,5.25
2023-04-11T00:48:05.262Z,5.16
2023-04-11T00:50:32.275Z,5.08
2023-04-11T00:52:59.138Z,5.04
2023-04-11T00:55:26.377Z,5.04
2023-04-11T00:57:55.484Z,5.05
2023-04-11T01:00:23.521Z,5.06
2023-04-11T01:02:50.530Z,5.05
2023-04-11T01:05:18.640Z,5.01
2023-04-11T01:07:50.499Z,4.95
2023-04-11T01:10:17.812Z,4.91
2023-04-11T01:12:46.118Z,4.91
2023-04-11T01:15:13.101Z,4.94
2023-04-11T01:17:41.820Z,4.99
2023-04-11T01:20:10.288Z,5.03
2023-04-11T01:22:38.730Z,5.04
2023-04-11T01:25:06.127Z,5.03
2023-04-11T01:27:34.509Z,5.01
2023-04-11T01:30:02.110Z,4.99
2023-04-11T01:32:28.965Z,5.00
2023-04-11T01:34:57.338Z,5.01
2023-04-11T01:37:24.739Z,5.03
2023-04-11T01:39:51.534Z,5.07
2023-04-11T01:42:19.722Z,5.11
2023-04-11T01:44:46.955Z,5.09
2023-04-11T01:47:15.131Z,5.10
2023-04-11T01:49:43.204Z,5.08
2023-04-11T01:52:10.106Z,5.06
2023-04-11T01:54:37.015Z,5.06
2023-04-11T01:57:06.806Z,5.07
2023-04-11T01:59:33.859Z,5.09
2023-04-11T02:02:00.999Z,5.10
2023-04-11T02:04:27.991Z,5.10
2023-04-11T02:06:54.850Z,5.07
2023-04-11T02:09:21.980Z,5.03
2023-04-11T02:11:48.685Z,5.00
2023-04-11T02:14:18.277Z,4.99
2023-04-11T02:16:56.645Z,4.98
2023-04-11T02:19:26.181Z,4.99
2023-04-11T02:21:53.139Z,5.02
2023-04-11T02:24:19.941Z,5.06
2023-04-11T02:26:46.661Z,5.08
2023-04-11T02:29:13.634Z,5.03
2023-04-11T02:31:40.733Z,4.95
2023-04-11T02:34:07.718Z,4.89
2023-04-11T02:36:34.939Z,4.84
2023-04-11T02:39:01.784Z,4.82
2023-04-11T02:41:28.515Z,4.81
2023-04-11T02:43:55.489Z,4.78
2023-04-11T02:46:22.560Z,4.77
2023-04-11T02:48:49.600Z,4.76
2023-04-11T02:51:16.668Z,4.76
2023-04-11T02:53:43.400Z,4.73
2023-04-11T02:56:11.972Z,4.73
2023-04-11T02:58:41.941Z,4.73
2023-04-11T03:01:12.088Z,4.73
2023-04-11T03:03:39.327Z,4.73
2023-04-11T03:06:07.285Z,4.69
2023-04-11T03:08:37.346Z,4.67
2023-04-11T03:11:04.940Z,4.64
2023-04-11T03:13:32.221Z,4.61
2023-04-11T03:15:59.314Z,4.62
2023-04-11T03:18:27.538Z,4.59
2023-04-11T03:20:56.125Z,4.57
2023-04-11T03:23:23.184Z,4.56
2023-04-11T03:25:51.902Z,4.53
2023-04-11T03:28:19.541Z,4.51
2023-04-11T03:30:48.929Z,4.49
2023-04-11T03:33:19.898Z,4.49
2023-04-11T03:35:46.894Z,4.48
2023-04-11T03:38:15.042Z,4.43
2023-04-11T03:40:41.999Z,4.41
2023-04-11T03:43:11.511Z,4.35
2023-04-11T03:45:38.318Z,4.27
2023-04-11T03:48:07.769Z,4.23
2023-04-11T03:50:51.958Z,4.21
2023-04-11T03:53:23.140Z,4.21
2023-04-11T03:55:53.760Z,4.21
2023-04-11T03:58:22.557Z,4.19
2023-04-11T04:00:50.109Z,4.21
2023-04-11T04:03:17.054Z,4.21
2023-04-11T04:05:44.488Z,4.25
2023-04-11T04:08:11.742Z,4.24
2023-04-11T04:10:42.820Z,4.19
2023-04-11T04:13:09.700Z,4.18
2023-04-11T04:15:40.903Z,4.12
2023-04-11T04:18:08.648Z,4.13
2023-04-11T04:20:42.507Z,4.14
2023-04-11T04:23:09.359Z,4.16
2023-04-11T04:25:51.140Z,4.17
2023-04-11T04:28:22.451Z,4.15
2023-04-11T04:30:54.395Z,4.14
2023-04-11T04:33:23.117Z,4.17
2023-04-11T04:35:51.752Z,4.19
2023-04-11T04:38:19.688Z,4.18
2023-04-11T04:40:50.586Z,4.21
2023-04-11T04:43:22.975Z,4.26
2023-04-11T04:45:56.352Z,4.30
2023-04-11T04:48:26.738Z,4.28
2023-04-11T04:50:54.629Z,4.23
2023-04-11T04:53:21.806Z,4.19
2023-04-11T04:55:52.368Z,4.17
2023-04-11T04:58:19.826Z,4.22
2023-04-11T05:00:49.490Z,4.28
2023-04-11T05:03:21.056Z,4.36
2023-04-11T05:05:49.438Z,4.46
2023-04-11T05:08:20.673Z,4.58
2023-04-11T05:10:47.550Z,4.65
2023-04-11T05:13:14.435Z,4.73
2023-04-11T05:15:47.836Z,4.82
2023-04-11T05:18:15.108Z,4.92
2023-04-11T05:20:42.300Z,5.03
2023-04-11T05:23:10.127Z,5.21
2023-04-11T05:25:37.088Z,5.39
2023-04-11T05:28:04.248Z,5.55
2023-04-11T05:30:31.507Z,5.71
2023-04-11T05:32:58.634Z,5.86
2023-04-11T05:35:26.037Z,6.03
2023-04-11T05:37:54.704Z,6.22
2023-04-11T05:40:21.434Z,6.42
2023-04-11T05:42:48.743Z,6.62
2023-04-11T05:45:15.639Z,6.80
2023-04-11T05:47:43.092Z,6.98
2023-04-11T05:50:11.111Z,7.13
2023-04-11T05:52:37.953Z,7.29
2023-04-11T05:55:06.803Z,7.46
2023-04-11T05:57:33.662Z,7.62
2023-04-11T06:00:02.086Z,7.74
2023-04-11T06:02:40.712Z,7.92
2023-04-11T06:05:10.807Z,8.05
2023-04-11T06:07:39.391Z,8.26
2023-04-11T06:10:07.831Z,8.53
2023-04-11T06:12:35.074Z,8.83
2023-04-11T06:15:01.976Z,9.12
2023-04-11T06:17:29.795Z,9.47
2023-04-11T06:19:58.490Z,9.80
2023-04-11T06:22:25.207Z,10.12
2023-04-11T06:24:51.967Z,10.50
2023-04-11T06:27:19.737Z,10.92
2023-04-11T06:29:46.479Z,11.44
2023-04-11T06:32:13.394Z,11.99
2023-04-11T06:34:40.315Z,12.56
2023-04-11T06:37:08.036Z,13.11
2023-04-11T06:39:35.992Z,13.65
2023-04-11T06:42:03.542Z,14.13
2023-04-11T06:44:34.827Z,14.49
2023-04-11T06:47:01.705Z,14.75
2023-04-11T06:49:29.055Z,14.95
2023-04-11T06:51:56.268Z,15.14
2023-04-11T06:54:23.553Z,15.34
2023-04-11T06:56:51.380Z,15.53
2023-04-11T06:59:20.599Z,15.71
2023-04-11T07:01:48.455Z,15.85
2023-04-11T07:04:15.666Z,16.02
2023-04-11T07:06:43.018Z,16.18
2023-04-11T07:09:09.791Z,16.20
2023-04-11T07:11:38.581Z,16.10
2023-04-11T07:14:05.822Z,16.07
2023-04-11T07:16:33.162Z,15.99
2023-04-11T07:19:00.148Z,15.88
2023-04-11T07:21:28.483Z,15.85
2023-04-11T07:23:55.364Z,15.93
2023-04-11T07:26:23.664Z,16.08
2023-04-11T07:28:51.232Z,16.22
2023-04-11T07:31:21.757Z,16.33
2023-04-11T07:33:48.560Z,16.52
2023-04-11T07:36:16.205Z,16.67
2023-04-11T07:38:43.227Z,16.80
2023-04-11T07:41:10.490Z,16.83
2023-04-11T07:43:37.397Z,16.79
2023-04-11T07:46:04.279Z,16.76
2023-04-11T07:48:32.020Z,16.81
2023-04-11T07:50:58.797Z,16.89
2023-04-11T07:53:41.137Z,17.02
2023-04-11T07:56:08.316Z,17.22
2023-04-11T07:58:35.125Z,17.36
2023-04-11T08:01:02.724Z,17.44
2023-04-11T08:03:30.177Z,17.41
2023-04-11T08:05:57.138Z,17.47
2023-04-11T08:08:23.985Z,17.60
2023-04-11T08:10:52.330Z,17.60
2023-04-11T08:13:19.518Z,17.55
2023-04-11T08:15:47.640Z,17.57
2023-04-11T08:18:16.458Z,17.60
2023-04-11T08:20:43.517Z,17.65
2023-04-11T08:23:10.701Z,17.68
2023-04-11T08:25:37.713Z,17.65
2023-04-11T08:28:05.238Z,17.53
2023-04-11T08:30:32.436Z,17.37
2023-04-11T08:32:59.373Z,17.17
2023-04-11T08:35:26.416Z,16.93
2023-04-11T08:37:53.537Z,16.80
2023-04-11T08:40:20.653Z,16.71
2023-04-11T08:42:47.590Z,16.71
2023-04-11T08:45:14.372Z,16.77
2023-04-11T08:47:43.182Z,16.89
2023-04-11T08:50:11.832Z,17.11
2023-04-11T08:52:39.674Z,17.41
2023-04-11T08:55:06.841Z,17.78
2023-04-11T08:57:35.035Z,18.11
2023-04-11T09:00:14.528Z,18.33
2023-04-11T09:02:58.789Z,18.53
2023-04-11T09:05:26.914Z,18.90
2023-04-11T09:07:54.894Z,19.20
2023-04-11T09:10:22.429Z,19.36
2023-04-11T09:12:49.250Z,19.51
2023-04-11T09:15:20.501Z,19.79
2023-04-11T09:17:47.656Z,20.14
2023-04-11T09:20:18.327Z,20.40
2023-04-11T09:22:45.231Z,20.60
2023-04-11T09:25:12.063Z,20.61
2023-04-11T09:27:38.846Z,20.33
2023-04-11T09:30:18.119Z,20.08
2023-04-11T09:32:46.223Z,20.04
2023-04-11T09:35:20.483Z,19.95
2023-04-11T09:37:49.433Z,19.87
2023-04-11T09:40:18.547Z,19.83
2023-04-11T09:42:46.893Z,19.78
2023-04-11T09:45:18.870Z,19.77
2023-04-11T09:47:47.157Z,19.59
2023-04-11T09:50:14.555Z,19.41
2023-04-11T09:52:43.205Z,19.21
2023-04-11T09:55:12.748Z,19.07
2023-04-11T09:57:45.942Z,19.00
2023-04-11T10:00:16.941Z,18.91
2023-04-11T10:02:46.263Z,19.05
2023-04-11T10:05:14.104Z,19.05
2023-04-11T10:07:52.487Z,18.96
2023-04-11T10:10:21.798Z,18.94
2023-04-11T10:12:50.302Z,19.01
2023-04-11T10:15:18.654Z,19.10
2023-04-11T10:18:10.160Z,19.25
2023-04-11T10:20:43.669Z,19.50
2023-04-11T10:23:11.435Z,19.55
2023-04-11T10:25:55.474Z,19.62
2023-04-11T10:28:33.807Z,19.70
2023-04-11T10:31:04.288Z,19.73
2023-04-11T10:33:32.271Z,19.76
2023-04-11T10:36:03.038Z,19.75
2023-04-11T10:38:37.276Z,19.82
2023-04-11T10:41:23.190Z,19.83
2023-04-11T10:43:50.127Z,19.91
2023-04-11T10:46:26.015Z,19.89
2023-04-11T10:48:58.317Z,19.97
2023-04-11T10:51:26.825Z,19.85
2023-04-11T10:53:54.628Z,19.73
2023-04-11T10:56:45.557Z,19.66
2023-04-11T10:59:31.474Z,19.42
2023-04-11T11:02:00.765Z,19.36
2023-04-11T11:04:36.106Z,19.37
2023-04-11T11:07:05.154Z,19.40
2023-04-11T11:09:32.728Z,19.49
2023-04-11T11:12:15.910Z,19.55
2023-04-11T11:14:44.807Z,19.67
2023-04-11T11:17:12.865Z,19.86
2023-04-11T11:19:48.544Z,19.92
2023-04-11T11:22:16.859Z,19.92
2023-04-11T11:24:43.769Z,19.92
2023-04-11T11:27:26.144Z,19.81
2023-04-11T11:29:53.447Z,19.74
2023-04-11T11:32:28.886Z,19.80
2023-04-11T11:34:57.858Z,19.91
2023-04-11T11:37:25.180Z,20.06
2023-04-11T11:39:52.404Z,20.37
2023-04-11T11:42:19.507Z,20.63
2023-04-11T11:44:46.384Z,20.79
2023-04-11T11:47:15.647Z,20.98
2023-04-11T11:49:47.110Z,21.30
2023-04-11T11:52:33.631Z,21.59
2023-04-11T11:55:01.996Z,21.97
2023-04-11T11:57:28.929Z,22.16
2023-04-11T11:59:57.256Z,22.09
2023-04-11T12:02:26.315Z,21.98
2023-04-11T12:05:02.869Z,21.85
2023-04-11T12:07:33.577Z,21.51
2023-04-11T12:10:02.246Z,21.16
2023-04-11T12:12:36.337Z,21.11
2023-04-11T12:15:04.141Z,21.18
2023-04-11T12:17:35.494Z,21.31
2023-04-11T12:20:08.558Z,21.34
2023-04-11T12:22:35.664Z,21.04
2023-04-11T12:25:05.776Z,20.92
2023-04-11T12:27:35.032Z,20.71
2023-04-11T12:30:02.073Z,20.38
2023-04-11T12:32:28.975Z,20.12
2023-04-11T12:34:56.725Z,20.27
2023-04-11T12:37:26.415Z,20.56
2023-04-11T12:39:54.199Z,20.78
2023-04-11T12:42:26.491Z,20.95
2023-04-11T12:44:54.139Z,21.01
2023-04-11T12:47:21.134Z,20.69
2023-04-11T12:49:48.066Z,20.32
2023-04-11T12:52:14.844Z,20.30
2023-04-11T12:54:41.625Z,20.58
2023-04-11T12:57:08.367Z,20.97
2023-04-11T12:59:35.367Z,21.01
2023-04-11T13:02:02.266Z,20.94
2023-04-11T13:04:29.267Z,21.02
2023-04-11T13:07:00.821Z,21.19
2023-04-11T13:09:29.815Z,21.25
2023-04-11T13:11:57.619Z,21.28
2023-04-11T13:14:25.207Z,21.42
2023-04-11T13:16:52.037Z,21.33
2023-04-11T13:19:18.844Z,21.19
2023-04-11T13:21:45.879Z,21.41
2023-04-11T13:24:15.974Z,21.69
2023-04-11T13:26:45.047Z,21.75
2023-04-11T13:29:14.700Z,21.82
2023-04-11T13:31:41.613Z,22.02
2023-04-11T13:34:08.428Z,21.91
2023-04-11T13:36:35.745Z,21.56
2023-04-11T13:39:02.655Z,21.45
2023-04-11T13:41:29.362Z,21.86
2023-04-11T13:43:56.100Z,22.23
2023-04-11T13:46:23.382Z,22.50
2023-04-11T13:48:50.229Z,22.70
2023-04-11T13:51:17.086Z,22.86
2023-04-11T13:53:44.107Z,22.81
2023-04-11T13:56:11.477Z,22.34
2023-04-11T13:58:38.991Z,21.80
2023-04-11T14:01:06.856Z,21.31
2023-04-11T14:03:34.048Z,20.81
2023-04-11T14:06:01.668Z,20.35
2023-04-11T14:08:28.874Z,20.05
2023-04-11T14:10:55.928Z,19.85
2023-04-11T14:13:23.163Z,19.64
2023-04-11T14:16:04.997Z,19.42
2023-04-11T14:18:35.682Z,19.18
2023-04-11T14:21:02.664Z,18.95
2023-04-11T14:23:29.728Z,18.74
2023-04-11T14:25:56.863Z,18.59
2023-04-11T14:28:26.511Z,18.54
2023-04-11T14:30:54.123Z,18.44
2023-04-11T14:33:21.115Z,18.28
2023-04-11T14:35:48.082Z,18.11
2023-04-11T14:38:15.984Z,18.01
2023-04-11T14:40:43.030Z,17.92
2023-04-11T14:43:10.029Z,17.81
2023-04-11T14:45:37.052Z,17.67
2023-04-11T14:48:04.127Z,17.56
2023-04-11T14:50:31.342Z,17.40
2023-04-11T14:52:58.266Z,17.19
2023-04-11T14:55:25.244Z,17.02
2023-04-11T14:57:54.235Z,16.84
2023-04-11T15:00:22.525Z,16.66
2023-04-11T15:02:55.069Z,16.50
2023-04-11T15:05:23.363Z,16.35
2023-04-11T15:07:52.087Z,16.21
2023-04-11T15:10:21.585Z,16.07
2023-04-11T15:12:48.556Z,15.92
2023-04-11T15:15:16.116Z,15.77
2023-04-11T15:17:46.925Z,15.70
2023-04-11T15:20:14.681Z,15.59
2023-04-11T15:22:43.442Z,15.46
2023-04-11T15:25:13.392Z,15.33
2023-04-11T15:27:41.169Z,15.20
2023-04-11T15:30:08.819Z,15.05
2023-04-11T15:32:35.774Z,14.85
2023-04-11T15:35:02.714Z,14.65
2023-04-11T15:37:29.512Z,14.50
2023-04-11T15:39:57.880Z,14.30
2023-04-11T15:42:24.900Z,14.05
2023-04-11T15:44:51.744Z,13.83
2023-04-11T15:47:18.596Z,13.67
2023-04-11T15:49:46.102Z,13.53
2023-04-11T15:52:12.864Z,13.38
2023-04-11T15:54:39.622Z,13.23
2023-04-11T15:57:06.351Z,13.08
2023-04-11T15:59:33.908Z,12.95
2023-04-11T16:02:00.846Z,12.82
2023-04-11T16:04:27.768Z,12.67
2023-04-11T16:06:54.546Z,12.59
2023-04-11T16:09:22.342Z,12.54
2023-04-11T16:11:49.041Z,12.49
2023-04-11T16:14:16.073Z,12.40
2023-04-11T16:16:46.847Z,12.32
2023-04-11T16:19:13.640Z,12.28
2023-04-11T16:21:40.519Z,12.26
2023-04-11T16:24:07.358Z,12.23
2023-04-11T16:26:34.133Z,12.17
2023-04-11T16:29:00.990Z,12.14
2023-04-11T16:31:27.800Z,12.08
2023-04-11T16:33:55.422Z,12.03
2023-04-11T16:36:22.467Z,11.95
2023-04-11T16:38:50.676Z,11.90
2023-04-11T16:41:17.714Z,11.83
2023-04-11T16:43:44.638Z,11.72
2023-04-11T16:46:13.773Z,11.63
2023-04-11T16:48:41.816Z,11.55
2023-04-11T16:51:11.023Z,11.47
2023-04-11T16:53:39.020Z,11.38
2023-04-11T16:56:06.389Z,11.40
2023-04-11T16:58:33.695Z,11.45
2023-04-11T17:01:01.115Z,11.49
2023-04-11T17:03:28.181Z,11.51
2023-04-11T17:05:55.200Z,11.50
2023-04-11T17:08:22.126Z,11.46
2023-04-11T17:10:48.921Z,11.45
2023-04-11T17:13:18.492Z,11.43
2023-04-11T17:15:46.388Z,11.40
2023-04-11T17:18:15.042Z,11.35
2023-04-11T17:20:44.374Z,11.28
2023-04-11T17:23:11.128Z,11.25
2023-04-11T17:25:37.924Z,11.16
2023-04-11T17:28:05.045Z,11.08
2023-04-11T17:30:32.539Z,10.96
2023-04-11T17:32:59.928Z,10.85
2023-04-11T17:35:28.125Z,10.77
2023-04-11T17:37:55.407Z,10.67
2023-04-11T17:40:22.298Z,10.57
2023-04-11T17:42:49.910Z,10.47
2023-04-11T17:45:18.583Z,10.36
2023-04-11T17:47:47.310Z,10.18
2023-04-11T17:50:15.101Z,10.04
2023-04-11T17:52:57.114Z,9.91
2023-04-11T17:56:15.748Z,9.81
2023-04-11T17:58:58.247Z,9.66
2023-04-11T18:01:29.438Z,9.60
2023-04-11T18:03:57.158Z,9.52
2023-04-11T18:06:25.422Z,9.43
2023-04-11T18:08:52.705Z,9.36
2023-04-11T18:11:19.627Z,9.27
2023-04-11T18:13:49.860Z,9.16
2023-04-11T18:16:17.481Z,9.05
2023-04-11T18:18:44.286Z,8.98
2023-04-11T18:21:11.124Z,8.88
2023-04-11T18:23:41.077Z,8.77
2023-04-11T18:26:09.058Z,8.71
2023-04-11T18:28:36.732Z,8.66
2023-04-11T18:31:04.110Z,8.61
2023-04-11T18:33:31.946Z,8.58
2023-04-11T18:35:58.970Z,8.57
2023-04-11T18:38:25.789Z,8.55
2023-04-11T18:40:56.142Z,8.50
2023-04-11T18:43:24.716Z,8.45
2023-04-11T18:45:51.881Z,8.42
2023-04-11T18:48:18.886Z,8.38
2023-04-11T18:50:48.605Z,8.37
2023-04-11T18:53:31.087Z,8.36
2023-04-11T18:55:58.109Z,8.35
2023-04-11T18:58:26.403Z,8.32
2023-04-11T19:01:15.590Z,8.33
2023-04-11T19:03:44.606Z,8.32
2023-04-11T19:06:12.469Z,8.32
2023-04-11T19:08:40.089Z,8.26
2023-04-11T19:11:07.032Z,8.25
2023-04-11T19:13:33.842Z,8.25
2023-04-11T19:16:01.047Z,8.27
2023-04-11T19:18:27.891Z,8.27
2023-04-11T19:20:54.847Z,8.25
2023-04-11T19:23:21.798Z,8.27
2023-04-11T19:25:49.007Z,8.28
2023-04-11T19:28:15.957Z,8.29
2023-04-11T19:30:58.100Z,8.28
2023-04-11T19:33:41.159Z,8.31
2023-04-11T19:36:08.163Z,8.31
2023-04-11T19:38:37.029Z,8.35
2023-04-11T19:41:19.679Z,8.36
2023-04-11T19:43:47.901Z,8.33
2023-04-11T19:46:15.743Z,8.29
2023-04-11T19:48:44.005Z,8.29
2023-04-11T19:51:11.569Z,8.32
2023-04-11T19:53:38.999Z,8.37
2023-04-11T19:56:08.801Z,8.37
2023-04-11T19:58:35.730Z,8.35
2023-04-11T20:01:03.877Z,8.36
2023-04-11T20:03:32.397Z,8.35
2023-04-11T20:05:59.418Z,8.36
2023-04-11T20:08:27.578Z,8.39
2023-04-11T20:10:55.094Z,8.38
2023-04-11T20:13:22.214Z,8.38
2023-04-11T20:16:04.915Z,8.40
2023-04-11T20:18:31.732Z,8.40
2023-04-11T20:20:58.658Z,8.40
2023-04-11T20:23:26.213Z,8.41
2023-04-11T20:26:08.480Z,8.42
2023-04-11T20:28:36.534Z,8.43
2023-04-11T20:31:04.637Z,8.39
2023-04-11T20:33:31.576Z,8.31
2023-04-11T20:35:58.478Z,8.27
2023-04-11T20:38:26.499Z,8.27
2023-04-11T20:40:53.238Z,8.28
2023-04-11T20:43:20.214Z,8.29
2023-04-11T20:45:46.989Z,8.28
2023-04-11T20:48:13.965Z,8.27
2023-04-11T20:50:41.978Z,8.25
2023-04-11T20:53:08.812Z,8.23
2023-04-11T20:55:35.763Z,8.17
2023-04-11T20:58:02.520Z,8.13
2023-04-11T21:00:29.564Z,8.13
2023-04-11T21:02:56.616Z,8.12
2023-04-11T21:05:28.661Z,8.13
2023-04-11T21:07:55.547Z,8.18
2023-04-11T21:10:22.654Z,8.17
2023-04-11T21:12:53.871Z,8.20
2023-04-11T21:15:21.485Z,8.22
2023-04-11T21:17:48.689Z,8.19
2023-04-11T21:20:20.244Z,8.18
2023-04-11T21:22:47.925Z,8.22
2023-04-11T21:25:15.973Z,8.26
2023-04-11T21:27:43.442Z,8.29
2023-04-11T21:30:11.350Z,8.29
2023-04-11T21:32:39.367Z,8.29
2023-04-11T21:35:08.477Z,8.28
2023-04-11T21:37:35.497Z,8.30
2023-04-11T21:40:02.902Z,8.31
2023-04-11T21:42:29.902Z,8.30
2023-04-11T21:44:56.663Z,8.30
2023-04-11T21:47:23.678Z,8.28
2023-04-11T21:49:50.540Z,8.24
2023-04-11T21:52:17.365Z,8.22
2023-04-11T21:54:44.448Z,8.21
2023-04-11T21:57:11.382Z,8.18
2023-04-11T21:59:39.317Z,8.17
2023-04-11T22:02:06.737Z,8.16
2023-04-11T22:04:41.462Z,8.14
2023-04-11T22:07:15.133Z,8.12
2023-04-11T22:09:46.686Z,8.11
2023-04-11T22:12:17.751Z,8.12
2023-04-11T22:14:44.502Z,8.10
2023-04-11T22:17:11.243Z,8.08
2023-04-11T22:19:42.275Z,8.06
2023-04-11T22:22:09.097Z,8.00
2023-04-11T22:24:38.550Z,8.00
2023-04-11T22:27:06.297Z,7.99
2023-04-11T22:29:34.562Z,7.99
2023-04-11T22:32:03.793Z,7.98
2023-04-11T22:34:31.157Z,7.97
2023-04-11T22:36:58.852Z,7.95
2023-04-11T22:39:25.644Z,7.92
2023-04-11T22:41:52.601Z,7.89
2023-04-11T22:44:19.464Z,7.89
2023-04-11T22:47:06.737Z,7.87
2023-04-11T22:49:42.200Z,7.84
2023-04-11T22:52:14.140Z,7.82
2023-04-11T22:54:42.665Z,7.81
2023-04-11T22:57:10.796Z,7.79
2023-04-11T22:59:37.783Z,7.80
2023-04-11T23:02:04.611Z,7.82
2023-04-11T23:04:32.325Z,7.79
2023-04-11T23:06:59.642Z,7.79
2023-04-11T23:09:26.536Z,7.78
2023-04-11T23:11:53.606Z,7.79
2023-04-11T23:14:21.298Z,7.80
2023-04-11T23:16:48.478Z,7.84
2023-04-11T23:19:15.762Z,7.85
2023-04-11T23:21:43.145Z,7.83
2023-04-11T23:24:10.113Z,7.80
2023-04-11T23:26:37.260Z,7.75
2023-04-11T23:29:04.396Z,7.68
2023-04-11T23:31:32.900Z,7.66
2023-04-11T23:34:00.613Z,7.66
2023-04-11T23:36:28.053Z,7.65
2023-04-11T23:38:55.154Z,7.62
2023-04-11T23:41:22.025Z,7.59
2023-04-11T23:43:48.846Z,7.58
2023-04-11T23:46:18.052Z,7.59
2023-04-11T23:48:46.877Z,7.62
2023-04-11T23:51:14.031Z,7.66
2023-04-11T23:53:41.232Z,7.65
2023-04-11T23:56:09.392Z,7.65
2023-04-11T23:58:36.233Z,7.61
